Latest Weather Observations for Bourke

IDN60801

Issued at 9:32 am EST Friday 26 May 2017 (issued every 30 minutes, with the page automatically refreshed every 10 minutes)

About weather observations | Map of weather stations | Latest weather observations for NSW | Other Formats
Station Details ID: 048245 Name: BOURKE AIRPORT AWS Lat: -30.04 Lon: 145.95 Height: 107.3 m
Data from the previous 72 hours. | See also: Recent months at Bourke
Date/Time
EST
Temp
°C
App
Temp
°C
Dew
Point
°C
Rel
Hum
%
Delta-T
°C
Wind Press
QNH
hPa
Press
MSL
hPa
Rain since
9am
mm
Dir  Spd
km/h
Gust
km/h
Spd
kts
Gust
kts
26/09:30am 14.0 10.9 7.3 64 3.3 ESE 13 19 7 10 1023.7 1023.6 0.0
26/09:00am 12.5 10.3 7.8 73 2.3 SE 9 13 5 7 1023.6 1023.5 0.0
26/08:30am 11.3 9.1 8.0 80 1.6 SSE 9 13 5 7 1023.7 1023.6 0.0
26/08:00am 9.4 7.6 8.0 91 0.7 S 7 11 4 6 1023.6 1023.5 0.0
26/07:30am 7.0 4.9 5.9 93 0.5 SW 6 6 3 3 1023.3 1023.2 0.0
26/07:00am 5.9 3.4 4.9 93 0.4 SW 7 9 4 5 1023.0 1022.9 0.0
26/06:30am 5.8 4.6 4.4 91 0.6 CALM 0 0 0 0 1022.6 1022.5 0.0
26/06:00am 6.1 4.8 4.3 88 0.8 CALM 0 0 0 0 1022.2 1022.1 0.0
26/05:30am 7.3 5.1 5.1 86 1.0 S 6 6 3 3 1021.8 1021.7 0.0
26/05:00am 8.4 6.5 6.5 88 0.9 SSE 6 9 3 5 1021.5 1021.4 0.0
26/04:30am 8.4 6.0 7.2 92 0.6 S 9 11 5 6 1021.2 1021.1 0.0
26/04:00am 7.4 5.2 5.4 87 0.9 S 6 7 3 4 1021.3 1021.2 0.0
26/03:30am 7.9 5.6 5.7 86 1.0 SSW 7 9 4 5 1021.4 1021.3 0.0
26/03:00am 8.5 6.8 6.0 84 1.1 SSW 4 6 2 3 1021.3 1021.2 0.0
26/02:30am 9.2 6.7 6.6 84 1.2 SE 9 11 5 6 1021.2 1021.1 0.0
26/02:00am 8.9 6.9 6.2 83 1.2 ESE 6 7 3 4 1021.5 1021.4 0.0
26/01:30am 8.9 6.7 5.5 79 1.5 ESE 6 7 3 4 1021.6 1021.5 0.0
26/01:00am 10.1 7.9 6.4 78 1.7 SE 7 7 4 4 1021.7 1021.6 0.0
26/12:30am 10.6 8.1 6.4 75 2.0 SE 9 11 5 6 1022.0 1021.9 0.0
26/12:00am 10.0 8.6 5.6 74 2.0 SE 2 7 1 4 1022.2 1022.1 0.0
 
Date/Time
EST
Temp
°C
App
Temp
°C
Dew
Point
°C
Rel
Hum
%
Delta-T
°C
Wind Press
QNH
hPa
Press
MSL
hPa
Rain since
9am
mm
Dir  Spd
km/h
Gust
km/h
Spd
kts
Gust
kts
25/11:30pm 11.5 9.0 6.4 71 2.4 SSE 9 11 5 6 1021.9 1021.8 0.0
25/11:00pm 11.8 9.2 6.3 69 2.6 SE 9 11 5 6 1021.9 1021.8 0.0
25/10:30pm 13.2 10.4 7.0 66 3.0 SSE 11 13 6 7 1022.0 1021.9 0.0
25/10:00pm 12.4 10.3 6.5 67 2.8 SSW 7 9 4 5 1022.0 1021.9 0.0
25/09:30pm 13.6 11.1 6.7 63 3.3 S 9 11 5 6 1021.6 1021.5 0.0
25/09:00pm 14.7 11.9 6.8 59 3.9 SSE 11 13 6 7 1021.5 1021.4 0.0
25/08:30pm 15.9 12.9 7.9 59 4.0 SSE 13 17 7 9 1021.5 1021.4 0.0
25/08:00pm 13.0 11.2 7.0 67 2.9 S 6 9 3 5 1021.5 1021.4 0.0
25/07:30pm 13.9 11.9 7.2 64 3.3 SW 7 9 4 5 1021.3 1021.2 0.0
25/07:00pm 14.8 13.1 7.4 61 3.7 S 6 7 3 4 1021.2 1021.1 0.0
25/06:30pm 15.2 13.3 6.7 57 4.2 SW 6 7 3 4 1020.8 1020.7 0.0
25/06:00pm 17.1 15.2 6.9 51 5.1 SW 6 7 3 4 1020.6 1020.5 0.0
25/05:30pm 19.0 17.1 6.8 45 6.2 SSW 6 7 3 4 1020.4 1020.3 0.0
25/05:00pm 20.4 17.9 6.7 41 6.9 SSW 9 13 5 7 1020.2 1020.1 0.0
25/04:30pm 21.0 17.7 6.5 39 7.4 SSW 13 17 7 9 1020.2 1020.1 0.0
25/04:00pm 21.2 18.0 6.7 39 7.4 SSW 13 20 7 11 1020.1 1020.0 0.0
25/03:30pm 21.1 18.2 6.6 39 7.4 SW 11 17 6 9 1020.1 1020.0 0.0
25/03:00pm 21.2 19.1 6.7 39 7.4 SSE 7 13 4 7 1020.3 1020.2 0.0
25/02:30pm 21.1 18.2 6.6 39 7.4 SW 11 17 6 9 1020.6 1020.5 0.0
25/02:00pm 21.3 18.3 7.9 42 7.0 SW 13 22 7 12 1020.9 1020.8 0.0
25/01:30pm 21.4 18.5 8.3 43 6.9 SSW 13 19 7 10 1021.1 1021.0 0.0
25/01:00pm 20.1 17.9 7.8 45 6.3 WSW 9 15 5 8 1021.5 1021.4 0.0
25/12:30pm 20.2 17.6 7.9 45 6.4 WSW 11 17 6 9 1021.9 1021.8 0.0
25/12:00pm 19.6 17.4 8.0 47 6.0 SE 9 13 5 7 1022.3 1022.2 0.0
25/11:30am 19.9 18.3 8.6 48 5.9 ENE 7 11 4 6 1022.8 1022.7 0.0
25/11:00am 18.8 17.3 8.5 51 5.3 SSE 6 11 3 6 1023.1 1023.0 0.0
25/10:30am 17.8 16.3 8.4 54 4.9 E 6 11 3 6 1023.3 1023.2 0.0
25/10:00am 16.4 14.3 8.1 58 4.2 ESE 9 15 5 8 1023.3 1023.2 0.0
25/09:30am 15.5 13.0 8.3 62 3.7 ESE 11 15 6 8 1023.3 1023.2 0.0
25/09:00am 13.9 11.8 8.1 68 2.9 SE 9 13 5 7 1023.1 1023.0 0.0
25/08:30am 12.0 10.2 7.9 76 2.0 SSE 7 11 4 6 1022.8 1022.7 0.0
25/08:00am 10.4 7.7 7.3 81 1.5 SSE 11 15 6 8 1022.7 1022.6 0.0
25/07:30am 9.4 6.6 7.0 85 1.1 SSE 11 13 6 7 1022.4 1022.3 0.0
25/07:00am 8.7 5.8 6.7 87 0.9 SSE 11 13 6 7 1022.2 1022.1 0.0
25/06:30am 8.8 6.3 6.6 86 1.0 SSE 9 13 5 7 1022.1 1022.0 0.0
25/06:00am 8.9 6.3 6.3 84 1.2 SSE 9 11 5 6 1021.9 1021.8 0.0
25/05:30am 9.5 7.0 6.6 82 1.4 SSE 9 11 5 6 1021.7 1021.6 0.0
25/05:00am 9.9 7.1 6.8 81 1.5 S 11 13 6 7 1021.4 1021.3 0.0
25/04:30am 10.3 7.8 6.6 78 1.7 SSE 9 13 5 7 1021.5 1021.4 0.0
25/04:00am 10.6 7.4 6.7 77 1.8 SSE 13 13 7 7 1021.3 1021.2 0.0
25/03:30am 10.8 8.1 7.5 80 1.6 SSE 11 13 6 7 1021.5 1021.4 0.0
25/03:00am 8.9 6.3 6.3 84 1.2 S 9 11 5 6 1021.7 1021.6 0.0
25/02:30am 8.9 6.9 6.3 84 1.2 SSW 6 7 3 4 1021.6 1021.5 0.0
25/02:00am 9.3 7.3 6.2 81 1.4 SSW 6 7 3 4 1021.8 1021.7 0.0
25/01:30am 9.4 7.2 6.3 81 1.4 SW 7 9 4 5 1021.8 1021.7 0.0
25/01:00am 10.1 8.0 6.6 79 1.6 SW 7 9 4 5 1022.0 1021.9 0.0
25/12:30am 10.9 8.9 7.0 77 1.9 SSW 7 9 4 5 1021.9 1021.8 0.0
25/12:00am 10.5 8.4 6.5 76 1.9 SSW 7 9 4 5 1021.9 1021.8 0.0
 
Date/Time
EST
Temp
°C
App
Temp
°C
Dew
Point
°C
Rel
Hum
%
Delta-T
°C
Wind Press
QNH
hPa
Press
MSL
hPa
Rain since
9am
mm
Dir  Spd
km/h
Gust
km/h
Spd
kts
Gust
kts
24/11:30pm 11.6 9.2 7.1 74 2.2 SW 9 9 5 5 1022.0 1021.9 0.0
24/11:00pm 11.8 9.8 7.1 73 2.3 SW 7 11 4 6 1022.1 1022.0 0.0
24/10:30pm 12.0 9.6 7.1 72 2.4 SW 9 9 5 5 1022.0 1021.9 0.0
24/10:00pm 12.2 10.2 7.1 71 2.5 WSW 7 9 4 5 1021.9 1021.8 0.0
24/09:30pm 12.7 10.7 7.0 68 2.8 WSW 7 9 4 5 1021.9 1021.8 0.0
24/09:00pm 13.6 11.2 6.9 64 3.2 WSW 9 9 5 5 1021.7 1021.6 0.0
24/08:30pm 14.3 11.8 6.6 60 3.7 WSW 9 9 5 5 1021.5 1021.4 0.0
24/08:00pm 15.2 12.7 6.7 57 4.2 WSW 9 11 5 6 1021.2 1021.1 0.0
24/07:30pm 15.4 12.9 6.7 56 4.3 WSW 9 9 5 5 1020.8 1020.7 0.0
24/07:00pm 15.6 13.4 6.1 53 4.6 WSW 7 9 4 5 1020.4 1020.3 0.0
24/06:30pm 17.0 14.4 5.9 48 5.4 WSW 9 11 5 6 1020.1 1020.0 0.0
24/06:00pm 18.3 15.6 5.5 43 6.2 WSW 9 11 5 6 1020.0 1019.9 0.0
24/05:30pm 19.5 16.7 5.2 39 7.0 WSW 9 13 5 7 1019.7 1019.6 0.0
24/05:00pm 21.0 17.7 4.6 34 8.0 SW 11 15 6 8 1019.5 1019.3 0.0
24/04:30pm 21.5 17.4 4.1 32 8.5 SW 15 20 8 11 1019.1 1019.0 0.0
24/04:00pm 22.0 17.9 4.6 32 8.6 WSW 15 22 8 12 1018.9 1018.8 0.0
24/03:30pm 22.0 18.2 4.1 31 8.7 SW 13 20 7 11 1018.9 1018.8 0.0
24/03:00pm 22.0 17.9 4.6 32 8.6 SW 15 24 8 13 1018.9 1018.8 0.0
24/02:30pm 22.1 18.2 5.5 34 8.3 SW 15 24 8 13 1018.9 1018.8 0.0
24/02:00pm 22.1 17.5 5.5 34 8.3 SW 19 26 10 14 1019.1 1019.0 0.0
24/01:30pm 21.9 17.6 5.3 34 8.3 SW 17 26 9 14 1019.3 1019.1 0.0
24/01:00pm 21.7 18.1 6.8 38 7.6 SSW 15 26 8 14 1019.7 1019.6 0.0
24/12:30pm 21.3 16.8 6.8 39 7.4 SSW 20 33 11 18 1020.1 1020.0 0.0
24/12:00pm 21.4 16.9 6.1 37 7.7 SSW 19 33 10 18 1020.7 1020.6 0.0
24/11:30am 20.9 16.7 7.5 42 6.9 SSW 19 24 10 13 1021.0 1020.9 0.0
24/11:00am 20.3 16.8 8.9 48 6.0 SSE 17 26 9 14 1021.3 1021.2 0.0
24/10:30am 19.7 16.0 9.6 52 5.4 S 19 26 10 14 1021.4 1021.3 0.0
24/10:00am 19.2 15.6 10.5 57 4.7 S 20 26 11 14 1021.5 1021.4 0.0
24/09:30am 18.3 14.9 11.4 64 3.8 S 20 26 11 14 1021.2 1021.1 0.0
24/09:00am 16.7 13.6 12.3 75 2.4 S 20 26 11 14 1020.9 1020.8 0.0
24/08:30am 16.2 13.8 12.6 79 2.0 SSW 17 22 9 12 1020.6 1020.5 0.0
24/08:00am 14.7 13.9 12.9 89 1.0 SW 9 13 5 7 1020.2 1020.1 0.0
24/07:30am 12.9 11.7 11.5 91 0.7 SW 9 13 5 7 1019.9 1019.8 0.0
24/07:00am 13.1 11.8 11.3 89 1.0 WSW 9 11 5 6 1019.1 1019.0 0.0
24/06:30am 13.8 12.7 11.8 88 1.1 SW 9 11 5 6 1018.7 1018.6 0.0
24/06:00am 14.1 13.0 12.1 88 1.1 SW 9 11 5 6 1018.2 1018.1 0.0
24/05:30am 14.3 13.3 12.3 88 1.1 SW 9 13 5 7 1017.8 1017.7 0.0
24/05:00am 14.6 13.5 13.0 90 0.9 SW 11 15 6 8 1017.5 1017.4 0.0
24/04:30am 14.7 13.2 13.2 91 0.8 WSW 13 17 7 9 1017.2 1017.1 0.0
24/04:00am 15.2 13.9 13.7 91 0.8 WSW 13 19 7 10 1017.1 1017.0 0.0
24/03:30am 14.7 13.9 14.1 96 0.3 W 11 13 6 7 1016.8 1016.7 0.0
24/03:00am 13.1 12.4 12.0 93 0.6 WSW 7 9 4 5 1016.6 1016.5 0.0
24/02:30am 13.4 12.9 12.0 91 0.8 W 6 7 3 4 1016.6 1016.5 0.0
24/02:00am 14.3 14.1 13.0 92 0.7 WSW 6 9 3 5 1016.6 1016.5 0.0
24/01:30am 14.3 15.2 12.9 91 0.8 CALM 0 0 0 0 1016.7 1016.6 0.0
24/01:00am 14.7 14.0 13.1 90 0.9 NE 9 9 5 5 1016.7 1016.6 0.0
24/12:30am 14.9 14.1 12.9 88 1.1 NNE 9 11 5 6 1016.8 1016.7 0.0
24/12:00am 15.7 15.4 13.4 86 1.3 NNE 7 9 4 5 1017.0 1016.9 0.0
 
Date/Time
EST
Temp
°C
App
Temp
°C
Dew
Point
°C
Rel
Hum
%
Delta-T
°C
Wind Press
QNH
hPa
Press
MSL
hPa
Rain since
9am
mm
Dir  Spd
km/h
Gust
km/h
Spd
kts
Gust
kts
23/11:30pm 16.3 15.9 14.0 86 1.3 NNE 9 11 5 6 1017.1 1017.0 0.0
23/11:00pm 16.9 16.2 14.2 84 1.5 NE 11 13 6 7 1017.2 1017.1 0.0
23/10:30pm 17.6 16.6 14.5 82 1.8 NE 13 15 7 8 1017.2 1017.1 0.0
23/10:00pm 18.3 17.4 14.8 80 2.0 NE 13 15 7 8 1017.3 1017.2 0.0
23/09:30pm 19.0 17.8 15.1 78 2.3 ENE 15 19 8 10 1017.3 1017.2 0.0
23/09:00pm 19.0 18.4 14.7 76 2.5 NE 11 13 6 7 1017.4 1017.3 0.0
23/08:30pm 20.0 18.4 15.0 73 2.9 ENE 17 20 9 11 1017.2 1017.1 0.0
23/08:00pm 20.2 18.9 14.8 71 3.2 ENE 15 20 8 11 1017.0 1016.9 0.0
23/07:30pm 20.9 18.9 15.0 69 3.5 ENE 19 26 10 14 1016.9 1016.8 0.0
23/07:00pm 21.3 19.1 14.9 67 3.8 E 20 28 11 15 1016.8 1016.7 0.0
23/06:30pm 21.7 19.5 14.4 63 4.3 E 19 26 10 14 1016.6 1016.5 0.0
23/06:00pm 23.7 22.5 9.7 41 7.7 WNW 6 7 3 4 1016.1 1016.0 0.0
23/05:30pm 26.3 24.8 9.2 34 9.4 WNW 7 11 4 6 1015.9 1015.8 0.0
23/05:00pm 28.0 25.4 9.3 31 10.4 WNW 13 20 7 11 1015.7 1015.6 0.0
23/04:30pm 28.8 25.2 8.5 28 11.2 NW 17 24 9 13 1015.5 1015.4 0.0
23/04:00pm 29.1 25.4 9.3 29 11.1 WNW 19 26 10 14 1015.5 1015.4 0.0
23/03:30pm 29.1 26.1 9.3 29 11.1 WNW 15 20 8 11 1015.5 1015.4 0.0
23/03:00pm 29.3 25.8 8.9 28 11.3 WNW 17 28 9 15 1015.6 1015.5 0.0
23/02:30pm 29.4 26.2 10.0 30 11.0 W 17 28 9 15 1015.8 1015.7 0.0
23/02:00pm 28.9 25.6 9.6 30 10.8 WNW 17 28 9 15 1016.1 1016.0 0.0
23/01:30pm 29.1 26.1 10.7 32 10.5 NW 17 26 9 14 1016.5 1016.4 0.0
23/01:00pm 29.2 25.5 10.3 31 10.7 NW 20 30 11 16 1016.8 1016.7 0.0
23/12:30pm 28.2 24.2 10.4 33 10.1 NNW 22 32 12 17 1017.3 1017.2 0.0
23/12:00pm 27.6 22.8 10.3 34 9.7 NNW 26 33 14 18 1017.6 1017.5 0.0
23/11:30am 27.6 23.2 11.6 37 9.2 NNW 26 33 14 18 1018.1 1018.0 0.0
23/11:00am 26.5 23.2 12.9 43 8.0 NNW 22 32 12 17 1018.4 1018.3 0.0
23/10:30am 24.0 22.0 13.8 53 6.0 N 17 20 9 11 1018.9 1018.8 0.0
23/10:00am 22.4 20.3 13.5 57 5.2 N 17 24 9 13 1019.3 1019.1 0.0

Other Formats:

Comma delimited format used in spreadsheet applications
http://www.bom.gov.au/fwo/IDN60801/IDN60801.94703.axf

JavaScript Object Notation format (JSON) in row-major order
http://www.bom.gov.au/fwo/IDN60801/IDN60801.94703.json